Zottegem, Belgium
Current Conditions -  °F | °C
As of 3:25 PM on Monday 24 Nov 2014 (Local Time) from EBCV Reporting Station
Few Clouds Few Clouds  
Wind Chill: 46°   Ceiling: Unl
Heat Index: 48°   Visibility: 6mi
Dew Point: 43°   Wind: 5mph
Humidity: 82%   Direction: 30°NNE
Pressure: 30.3"   Gusts: NA
Location:  50.87°N, 3.81°E
Report Text: EBCV 241425Z AUTO 03004KT 9999 FEW210/// 09/06 Q1026 BLU
Loading
Personal Weather Stations






























Interactive Weather Map New forecast layout! Learn more

10-Day Weather Forecast

Advertisements
Track Severe Weather on mobile